sensor_id;sensor_type;location;lat;lon;timestamp;pressure;altitude;pressure_sealevel;temperature;humidity
29907;BME280;16776;50.958;10.994;2023-05-07T00:02:12;98780.19;;;11.10;97.94
29907;BME280;16776;50.958;10.994;2023-05-07T00:04:39;98786.19;;;11.10;97.98
29907;BME280;16776;50.958;10.994;2023-05-07T00:07:06;98782.72;;;11.11;98.20
29907;BME280;16776;50.958;10.994;2023-05-07T00:09:32;98789.56;;;11.12;98.43
29907;BME280;16776;50.958;10.994;2023-05-07T00:11:59;98788.66;;;11.13;98.17
29907;BME280;16776;50.958;10.994;2023-05-07T00:14:27;98796.31;;;11.16;98.14
29907;BME280;16776;50.958;10.994;2023-05-07T00:16:53;98791.16;;;11.16;98.21
29907;BME280;16776;50.958;10.994;2023-05-07T00:19:20;98783.44;;;11.16;98.10
29907;BME280;16776;50.958;10.994;2023-05-07T00:21:46;98783.44;;;11.16;97.77
29907;BME280;16776;50.958;10.994;2023-05-07T00:24:13;98788.59;;;11.16;98.05
29907;BME280;16776;50.958;10.994;2023-05-07T00:26:39;98794.66;;;11.14;97.86
29907;BME280;16776;50.958;10.994;2023-05-07T00:29:06;98793.03;;;11.11;97.63
29907;BME280;16776;50.958;10.994;2023-05-07T00:31:34;98792.25;;;11.08;98.42
29907;BME280;16776;50.958;10.994;2023-05-07T00:34:00;98793.22;;;11.03;98.10
29907;BME280;16776;50.958;10.994;2023-05-07T00:36:27;98801.88;;;11.01;98.46
29907;BME280;16776;50.958;10.994;2023-05-07T00:38:58;98802.72;;;11.01;97.83
29907;BME280;16776;50.958;10.994;2023-05-07T00:41:25;98799.34;;;10.99;97.84
29907;BME280;16776;50.958;10.994;2023-05-07T00:43:52;98804.53;;;10.98;97.89
29907;BME280;16776;50.958;10.994;2023-05-07T00:46:20;98799.38;;;10.98;98.03
29907;BME280;16776;50.958;10.994;2023-05-07T00:48:49;98803.69;;;10.97;98.48
29907;BME280;16776;50.958;10.994;2023-05-07T00:51:18;98804.66;;;10.93;98.04
29907;BME280;16776;50.958;10.994;2023-05-07T00:53:45;98805.56;;;10.91;98.65
29907;BME280;16776;50.958;10.994;2023-05-07T00:56:12;98801.31;;;10.90;98.34
29907;BME280;16776;50.958;10.994;2023-05-07T00:58:40;98791.84;;;10.90;98.71
29907;BME280;16776;50.958;10.994;2023-05-07T01:01:06;98791.94;;;10.87;98.62
29907;BME280;16776;50.958;10.994;2023-05-07T01:03:33;98791.97;;;10.86;99.08
29907;BME280;16776;50.958;10.994;2023-05-07T01:06:02;98796.97;;;10.92;98.86
29907;BME280;16776;50.958;10.994;2023-05-07T01:08:30;98799.59;;;10.89;98.91
29907;BME280;16776;50.958;10.994;2023-05-07T01:10:59;98794.44;;;10.89;98.95
29907;BME280;16776;50.958;10.994;2023-05-07T01:13:25;98801.41;;;10.87;98.70
29907;BME280;16776;50.958;10.994;2023-05-07T01:15:53;98792.81;;;10.86;99.12
29907;BME280;16776;50.958;10.994;2023-05-07T01:18:20;98794.53;;;10.86;98.68
29907;BME280;16776;50.958;10.994;2023-05-07T01:20:47;98795.44;;;10.85;98.67
29907;BME280;16776;50.958;10.994;2023-05-07T01:23:15;98784.28;;;10.84;98.69
29907;BME280;16776;50.958;10.994;2023-05-07T01:25:41;98786.91;;;10.81;98.64
29907;BME280;16776;50.958;10.994;2023-05-07T01:28:08;98791.28;;;10.79;98.30
29907;BME280;16776;50.958;10.994;2023-05-07T01:30:36;98792.13;;;10.80;98.91
29907;BME280;16776;50.958;10.994;2023-05-07T01:33:06;98787.81;;;10.80;99.01
29907;BME280;16776;50.958;10.994;2023-05-07T01:35:37;98790.50;;;10.76;98.82
29907;BME280;16776;50.958;10.994;2023-05-07T01:38:05;98783.72;;;10.72;99.04
29907;BME280;16776;50.958;10.994;2023-05-07T01:40:33;98788.00;;;10.73;98.82
29907;BME280;16776;50.958;10.994;2023-05-07T01:43:00;98788.19;;;10.65;99.36
29907;BME280;16776;50.958;10.994;2023-05-07T01:45:28;98774.63;;;10.58;99.36
29907;BME280;16776;50.958;10.994;2023-05-07T01:47:55;98789.06;;;10.64;99.34
29907;BME280;16776;50.958;10.994;2023-05-07T01:50:21;98782.22;;;10.63;99.39
29907;BME280;16776;50.958;10.994;2023-05-07T01:52:50;98781.38;;;10.62;99.31
29907;BME280;16776;50.958;10.994;2023-05-07T01:55:17;98779.75;;;10.58;99.24
29907;BME280;16776;50.958;10.994;2023-05-07T01:57:45;98772.91;;;10.57;99.35
29907;BME280;16776;50.958;10.994;2023-05-07T02:00:12;98774.72;;;10.55;99.30
29907;BME280;16776;50.958;10.994;2023-05-07T02:02:39;98770.47;;;10.53;99.54
29907;BME280;16776;50.958;10.994;2023-05-07T02:05:06;98776.47;;;10.52;99.55
29907;BME280;16776;50.958;10.994;2023-05-07T02:07:32;98771.34;;;10.50;99.38
29907;BME280;16776;50.958;10.994;2023-05-07T02:09:59;98769.63;;;10.49;99.50
29907;BME280;16776;50.958;10.994;2023-05-07T02:12:25;98775.63;;;10.50;99.46
29907;BME280;16776;50.958;10.994;2023-05-07T02:14:53;98779.94;;;10.49;99.00
29907;BME280;16776;50.958;10.994;2023-05-07T02:17:20;98777.47;;;10.46;99.26
29907;BME280;16776;50.958;10.994;2023-05-07T02:19:47;98780.09;;;10.43;99.42
29907;BME280;16776;50.958;10.994;2023-05-07T02:22:14;98783.63;;;10.39;99.59
29907;BME280;16776;50.958;10.994;2023-05-07T02:24:40;98764.28;;;10.23;99.27
29907;BME280;16776;50.958;10.994;2023-05-07T02:27:07;98781.16;;;10.35;99.43
29907;BME280;16776;50.958;10.994;2023-05-07T02:29:33;98786.34;;;10.33;99.83
29907;BME280;16776;50.958;10.994;2023-05-07T02:32:01;98788.91;;;10.35;100.00
29907;BME280;16776;50.958;10.994;2023-05-07T02:34:30;98792.22;;;10.38;99.48
29907;BME280;16776;50.958;10.994;2023-05-07T02:36:57;98790.63;;;10.34;99.59
29907;BME280;16776;50.958;10.994;2023-05-07T02:39:24;98787.19;;;10.34;99.75
29907;BME280;16776;50.958;10.994;2023-05-07T02:41:50;98794.06;;;10.33;100.00
29907;BME280;16776;50.958;10.994;2023-05-07T02:44:17;98794.91;;;10.34;100.00
29907;BME280;16776;50.958;10.994;2023-05-07T02:46:43;98788.88;;;10.36;99.70
29907;BME280;16776;50.958;10.994;2023-05-07T02:49:11;98791.34;;;10.39;100.00
29907;BME280;16776;50.958;10.994;2023-05-07T02:51:39;98781.13;;;10.36;99.96
29907;BME280;16776;50.958;10.994;2023-05-07T02:54:05;98780.22;;;10.37;100.00
29907;BME280;16776;50.958;10.994;2023-05-07T02:56:32;98777.63;;;10.39;100.00
29907;BME280;16776;50.958;10.994;2023-05-07T02:58:58;98781.91;;;10.40;99.76
29907;BME280;16776;50.958;10.994;2023-05-07T03:01:25;98775.03;;;10.40;99.68
29907;BME280;16776;50.958;10.994;2023-05-07T03:03:51;98776.78;;;10.38;99.83
29907;BME280;16776;50.958;10.994;2023-05-07T03:06:19;98775.06;;;10.39;99.74
29907;BME280;16776;50.958;10.994;2023-05-07T03:08:46;98786.31;;;10.35;99.44
29907;BME280;16776;50.958;10.994;2023-05-07T03:11:13;98776.06;;;10.33;99.63
29907;BME280;16776;50.958;10.994;2023-05-07T03:13:39;98776.94;;;10.32;99.61
29907;BME280;16776;50.958;10.994;2023-05-07T03:16:06;98772.72;;;10.30;99.86
29907;BME280;16776;50.958;10.994;2023-05-07T03:18:34;98783.03;;;10.28;99.88
29907;BME280;16776;50.958;10.994;2023-05-07T03:21:00;98784.78;;;10.26;99.61
29907;BME280;16776;50.958;10.994;2023-05-07T03:23:29;98776.19;;;10.27;99.67
29907;BME280;16776;50.958;10.994;2023-05-07T03:25:55;98780.59;;;10.22;99.82
29907;BME280;16776;50.958;10.994;2023-05-07T03:28:22;98784.97;;;10.18;100.00
29907;BME280;16776;50.958;10.994;2023-05-07T03:30:48;98777.31;;;10.17;99.78
29907;BME280;16776;50.958;10.994;2023-05-07T03:33:15;98770.47;;;10.14;99.90
29907;BME280;16776;50.958;10.994;2023-05-07T03:35:42;98773.97;;;10.12;100.00
29907;BME280;16776;50.958;10.994;2023-05-07T03:38:08;98776.59;;;10.10;100.00
29907;BME280;16776;50.958;10.994;2023-05-07T03:40:36;98772.22;;;10.12;100.00
29907;BME280;16776;50.958;10.994;2023-05-07T03:43:03;98774.84;;;10.11;100.00
29907;BME280;16776;50.958;10.994;2023-05-07T03:45:29;98780.91;;;10.08;100.00
29907;BME280;16776;50.958;10.994;2023-05-07T03:47:56;98774.09;;;10.06;100.00
29907;BME280;16776;50.958;10.994;2023-05-07T03:50:23;98779.31;;;10.03;100.00
29907;BME280;16776;50.958;10.994;2023-05-07T03:52:49;98787.97;;;9.99;100.00
29907;BME280;16776;50.958;10.994;2023-05-07T03:55:16;98779.50;;;9.95;100.00
29907;BME280;16776;50.958;10.994;2023-05-07T03:57:44;98785.50;;;9.94;100.00
29907;BME280;16776;50.958;10.994;2023-05-07T04:00:12;98789.88;;;9.91;100.00
29907;BME280;16776;50.958;10.994;2023-05-07T04:02:39;98794.19;;;9.90;100.00
29907;BME280;16776;50.958;10.994;2023-05-07T04:05:05;98797.63;;;9.89;100.00
29907;BME280;16776;50.958;10.994;2023-05-07T04:07:32;98793.34;;;9.90;100.00
29907;BME280;16776;50.958;10.994;2023-05-07T04:09:59;98798.47;;;9.90;100.00
29907;BME280;16776;50.958;10.994;2023-05-07T04:12:27;98804.47;;;9.90;100.00
29907;BME280;16776;50.958;10.994;2023-05-07T04:14:55;98806.97;;;9.93;100.00
29907;BME280;16776;50.958;10.994;2023-05-07T04:17:22;98808.75;;;9.91;100.00
29907;BME280;16776;50.958;10.994;2023-05-07T04:19:48;98811.25;;;9.93;100.00
29907;BME280;16776;50.958;10.994;2023-05-07T04:22:15;98817.28;;;9.92;100.00
29907;BME280;16776;50.958;10.994;2023-05-07T04:24:41;98811.31;;;9.91;100.00
29907;BME280;16776;50.958;10.994;2023-05-07T04:27:08;98808.78;;;9.88;100.00
29907;BME280;16776;50.958;10.994;2023-05-07T04:29:34;98812.22;;;9.89;100.00
29907;BME280;16776;50.958;10.994;2023-05-07T04:32:02;98815.63;;;9.91;100.00
29907;BME280;16776;50.958;10.994;2023-05-07T04:34:29;98825.06;;;9.89;100.00
29907;BME280;16776;50.958;10.994;2023-05-07T04:36:58;98817.41;;;9.85;100.00
29907;BME280;16776;50.958;10.994;2023-05-07T04:39:25;98820.88;;;9.84;100.00
29907;BME280;16776;50.958;10.994;2023-05-07T04:41:52;98830.28;;;9.85;100.00
29907;BME280;16776;50.958;10.994;2023-05-07T04:44:18;98824.34;;;9.83;100.00
29907;BME280;16776;50.958;10.994;2023-05-07T04:46:45;98827.78;;;9.82;100.00
29907;BME280;16776;50.958;10.994;2023-05-07T04:49:13;98823.47;;;9.83;100.00
29907;BME280;16776;50.958;10.994;2023-05-07T04:51:40;98824.38;;;9.80;100.00
29907;BME280;16776;50.958;10.994;2023-05-07T04:54:08;98825.22;;;9.81;100.00
29907;BME280;16776;50.958;10.994;2023-05-07T04:56:34;98826.09;;;9.80;100.00
29907;BME280;16776;50.958;10.994;2023-05-07T04:59:01;98829.53;;;9.80;100.00
29907;BME280;16776;50.958;10.994;2023-05-07T05:01:27;98832.09;;;9.80;100.00
29907;BME280;16776;50.958;10.994;2023-05-07T05:03:54;98822.78;;;9.75;100.00
29907;BME280;16776;50.958;10.994;2023-05-07T05:06:22;98835.47;;;9.84;100.00
29907;BME280;16776;50.958;10.994;2023-05-07T05:08:48;98839.78;;;9.82;100.00
29907;BME280;16776;50.958;10.994;2023-05-07T05:11:15;98827.06;;;9.74;100.00
29907;BME280;16776;50.958;10.994;2023-05-07T05:13:42;98842.38;;;9.82;100.00
29907;BME280;16776;50.958;10.994;2023-05-07T05:16:08;98838.09;;;9.81;100.00
29907;BME280;16776;50.958;10.994;2023-05-07T05:18:35;98849.22;;;9.81;100.00
29907;BME280;16776;50.958;10.994;2023-05-07T05:21:02;98845.78;;;9.82;100.00
29907;BME280;16776;50.958;10.994;2023-05-07T05:23:30;98847.44;;;9.85;100.00
29907;BME280;16776;50.958;10.994;2023-05-07T05:25:56;98849.19;;;9.84;100.00
29907;BME280;16776;50.958;10.994;2023-05-07T05:28:23;98848.28;;;9.85;100.00
29907;BME280;16776;50.958;10.994;2023-05-07T05:30:50;98856.81;;;9.88;100.00
29907;BME280;16776;50.958;10.994;2023-05-07T05:33:16;98855.06;;;9.90;100.00
29907;BME280;16776;50.958;10.994;2023-05-07T05:35:43;98857.63;;;9.91;100.00
29907;BME280;16776;50.958;10.994;2023-05-07T05:38:13;98854.22;;;9.89;100.00
29907;BME280;16776;50.958;10.994;2023-05-07T05:40:41;98857.63;;;9.91;100.00
29907;BME280;16776;50.958;10.994;2023-05-07T05:43:07;98855.94;;;9.90;100.00
29907;BME280;16776;50.958;10.994;2023-05-07T05:45:34;98862.78;;;9.91;100.00
29907;BME280;16776;50.958;10.994;2023-05-07T05:48:03;98863.59;;;9.92;100.00
29907;BME280;16776;50.958;10.994;2023-05-07T05:50:29;98854.16;;;9.92;100.00
29907;BME280;16776;50.958;10.994;2023-05-07T05:52:56;98851.56;;;9.94;100.00
29907;BME280;16776;50.958;10.994;2023-05-07T05:55:23;98839.69;;;9.87;100.00
29907;BME280;16776;50.958;10.994;2023-05-07T05:57:51;98856.66;;;9.97;100.00
29907;BME280;16776;50.958;10.994;2023-05-07T06:00:17;98860.97;;;9.95;100.00
29907;BME280;16776;50.958;10.994;2023-05-07T06:02:47;98855.13;;;9.87;100.00
29907;BME280;16776;50.958;10.994;2023-05-07T06:05:14;98869.63;;;9.91;100.00
29907;BME280;16776;50.958;10.994;2023-05-07T06:07:41;98869.66;;;9.89;100.00
29907;BME280;16776;50.958;10.994;2023-05-07T06:10:08;98870.53;;;9.88;100.00
29907;BME280;16776;50.958;10.994;2023-05-07T06:12:34;98882.56;;;9.86;100.00
29907;BME280;16776;50.958;10.994;2023-05-07T06:15:03;98889.41;;;9.87;100.00
29907;BME280;16776;50.958;10.994;2023-05-07T06:17:29;98896.34;;;9.83;100.00
29907;BME280;16776;50.958;10.994;2023-05-07T06:19:56;98888.66;;;9.82;100.00
29907;BME280;16776;50.958;10.994;2023-05-07T06:22:23;98895.53;;;9.81;100.00
29907;BME280;16776;50.958;10.994;2023-05-07T06:24:49;98890.41;;;9.80;100.00
29907;BME280;16776;50.958;10.994;2023-05-07T06:27:16;98886.19;;;9.77;100.00
29907;BME280;16776;50.958;10.994;2023-05-07T06:29:42;98894.78;;;9.76;100.00
29907;BME280;16776;50.958;10.994;2023-05-07T06:32:12;98892.19;;;9.76;100.00
29907;BME280;16776;50.958;10.994;2023-05-07T06:34:39;98890.59;;;9.71;100.00
29907;BME280;16776;50.958;10.994;2023-05-07T06:37:06;98895.75;;;9.69;100.00
29907;BME280;16776;50.958;10.994;2023-05-07T06:39:33;98886.34;;;9.68;100.00
29907;BME280;16776;50.958;10.994;2023-05-07T06:42:00;98895.75;;;9.69;100.00
29907;BME280;16776;50.958;10.994;2023-05-07T06:44:27;98900.06;;;9.67;100.00
29907;BME280;16776;50.958;10.994;2023-05-07T06:46:53;98901.84;;;9.65;100.00
29907;BME280;16776;50.958;10.994;2023-05-07T06:49:21;98901.78;;;9.68;100.00
29907;BME280;16776;50.958;10.994;2023-05-07T06:51:48;98906.09;;;9.66;100.00
29907;BME280;16776;50.958;10.994;2023-05-07T06:54:14;98912.06;;;9.68;100.00
29907;BME280;16776;50.958;10.994;2023-05-07T06:56:41;98909.47;;;9.70;100.00
29907;BME280;16776;50.958;10.994;2023-05-07T06:59:08;98908.53;;;9.74;100.00
29907;BME280;16776;50.958;10.994;2023-05-07T07:01:34;98912.69;;;9.81;100.00
29907;BME280;16776;50.958;10.994;2023-05-07T07:04:01;98906.53;;;9.88;100.00
29907;BME280;16776;50.958;10.994;2023-05-07T07:06:29;98913.16;;;10.01;100.00
29907;BME280;16776;50.958;10.994;2023-05-07T07:08:56;98921.59;;;10.08;100.00
29907;BME280;16776;50.958;10.994;2023-05-07T07:11:23;98923.16;;;10.15;100.00
29907;BME280;16776;50.958;10.994;2023-05-07T07:13:51;98926.34;;;10.26;100.00
29907;BME280;16776;50.958;10.994;2023-05-07T07:16:19;98928.84;;;10.31;100.00
29907;BME280;16776;50.958;10.994;2023-05-07T07:18:46;98926.94;;;10.39;100.00
29907;BME280;16776;50.958;10.994;2023-05-07T07:21:12;98931.94;;;10.46;100.00
29907;BME280;16776;50.958;10.994;2023-05-07T07:23:40;98921.44;;;10.57;100.00
29907;BME280;16776;50.958;10.994;2023-05-07T07:26:07;98929.09;;;10.61;100.00
29907;BME280;16776;50.958;10.994;2023-05-07T07:28:33;98931.31;;;10.75;100.00
29907;BME280;16776;50.958;10.994;2023-05-07T07:31:00;98928.44;;;10.89;100.00
29907;BME280;16776;50.958;10.994;2023-05-07T07:33:26;98934.22;;;11.00;100.00
29907;BME280;16776;50.958;10.994;2023-05-07T07:35:55;98921.19;;;11.06;100.00
29907;BME280;16776;50.958;10.994;2023-05-07T07:38:21;98924.53;;;11.08;100.00
29907;BME280;16776;50.958;10.994;2023-05-07T07:40:49;98929.63;;;11.11;100.00
29907;BME280;16776;50.958;10.994;2023-05-07T07:43:16;98934.94;;;11.05;100.00
29907;BME280;16776;50.958;10.994;2023-05-07T07:45:42;98917.00;;;11.00;100.00
29907;BME280;16776;50.958;10.994;2023-05-07T07:48:09;98918.84;;;10.95;100.00
29907;BME280;16776;50.958;10.994;2023-05-07T07:50:35;98921.59;;;10.88;100.00
29907;BME280;16776;50.958;10.994;2023-05-07T07:53:02;98922.63;;;10.81;100.00
29907;BME280;16776;50.958;10.994;2023-05-07T07:55:29;98931.38;;;10.74;100.00
29907;BME280;16776;50.958;10.994;2023-05-07T07:57:58;98934.09;;;10.68;100.00
29907;BME280;16776;50.958;10.994;2023-05-07T08:00:24;98928.38;;;10.53;100.00
29907;BME280;16776;50.958;10.994;2023-05-07T08:02:51;98936.19;;;10.49;100.00
29907;BME280;16776;50.958;10.994;2023-05-07T08:05:17;98932.91;;;10.42;100.00
29907;BME280;16776;50.958;10.994;2023-05-07T08:07:47;98933.13;;;10.30;100.00
29907;BME280;16776;50.958;10.994;2023-05-07T08:10:16;98938.09;;;10.39;100.00
29907;BME280;16776;50.958;10.994;2023-05-07T08:12:46;98934.22;;;10.20;100.00
29907;BME280;16776;50.958;10.994;2023-05-07T08:15:14;98937.66;;;10.19;100.00
29907;BME280;16776;50.958;10.994;2023-05-07T08:17:41;98936.97;;;10.11;100.00
29907;BME280;16776;50.958;10.994;2023-05-07T08:20:11;98935.34;;;10.07;100.00
29907;BME280;16776;50.958;10.994;2023-05-07T08:22:37;98931.13;;;10.03;100.00
29907;BME280;16776;50.958;10.994;2023-05-07T08:25:04;98930.28;;;10.02;100.00
29907;BME280;16776;50.958;10.994;2023-05-07T08:27:31;98936.31;;;10.01;100.00
29907;BME280;16776;50.958;10.994;2023-05-07T08:29:58;98938.91;;;10.00;100.00
29907;BME280;16776;50.958;10.994;2023-05-07T08:32:25;98938.91;;;10.00;100.00
29907;BME280;16776;50.958;10.994;2023-05-07T08:34:52;98938.09;;;9.98;100.00
29907;BME280;16776;50.958;10.994;2023-05-07T08:37:22;98938.91;;;10.00;100.00
29907;BME280;16776;50.958;10.994;2023-05-07T08:39:49;98942.44;;;9.94;100.00
29907;BME280;16776;50.958;10.994;2023-05-07T08:42:16;98949.31;;;9.94;100.00
29907;BME280;16776;50.958;10.994;2023-05-07T08:44:45;98945.00;;;9.96;100.00
29907;BME280;16776;50.958;10.994;2023-05-07T08:47:12;98939.03;;;9.94;100.00
29907;BME280;16776;50.958;10.994;2023-05-07T08:49:40;98942.41;;;9.97;100.00
29907;BME280;16776;50.958;10.994;2023-05-07T08:52:07;98954.41;;;9.97;100.00
29907;BME280;16776;50.958;10.994;2023-05-07T08:54:33;98953.56;;;9.96;100.00
29907;BME280;16776;50.958;10.994;2023-05-07T08:57:00;98949.22;;;9.98;100.00
29907;BME280;16776;50.958;10.994;2023-05-07T08:59:27;98952.63;;;10.00;100.00
29907;BME280;16776;50.958;10.994;2023-05-07T09:01:55;98956.88;;;10.01;100.00
29907;BME280;16776;50.958;10.994;2023-05-07T09:04:22;98964.63;;;10.00;100.00
29907;BME280;16776;50.958;10.994;2023-05-07T09:06:50;98968.06;;;9.99;100.00
29907;BME280;16776;50.958;10.994;2023-05-07T09:09:17;98964.72;;;9.95;100.00
29907;BME280;16776;50.958;10.994;2023-05-07T09:11:44;98964.75;;;9.94;100.00
29907;BME280;16776;50.958;10.994;2023-05-07T09:14:11;98963.00;;;9.96;100.00
29907;BME280;16776;50.958;10.994;2023-05-07T09:16:38;98956.13;;;9.98;100.00
29907;BME280;16776;50.958;10.994;2023-05-07T09:19:05;98953.47;;;9.99;100.00
29907;BME280;16776;50.958;10.994;2023-05-07T09:21:31;98954.31;;;10.01;100.00
29907;BME280;16776;50.958;10.994;2023-05-07T09:23:59;98965.38;;;10.05;100.00
29907;BME280;16776;50.958;10.994;2023-05-07T09:26:26;98967.16;;;10.03;100.00
29907;BME280;16776;50.958;10.994;2023-05-07T09:28:53;98969.69;;;10.04;100.00
29907;BME280;16776;50.958;10.994;2023-05-07T09:31:20;98973.94;;;10.05;100.00
29907;BME280;16776;50.958;10.994;2023-05-07T09:33:48;98968.84;;;10.04;100.00
29907;BME280;16776;50.958;10.994;2023-05-07T09:36:15;98972.25;;;10.04;100.00
29907;BME280;16776;50.958;10.994;2023-05-07T09:38:42;98974.00;;;10.04;100.00
29907;BME280;16776;50.958;10.994;2023-05-07T09:41:11;98967.06;;;10.07;100.00
29907;BME280;16776;50.958;10.994;2023-05-07T09:43:39;98966.28;;;10.04;100.00
29907;BME280;16776;50.958;10.994;2023-05-07T09:46:07;98978.25;;;10.05;100.00
29907;BME280;16776;50.958;10.994;2023-05-07T09:48:37;98976.47;;;10.10;100.00
29907;BME280;16776;50.958;10.994;2023-05-07T09:51:09;98976.47;;;10.10;100.00
29907;BME280;16776;50.958;10.994;2023-05-07T09:53:37;98980.78;;;10.08;100.00
29907;BME280;16776;50.958;10.994;2023-05-07T09:56:06;98958.56;;;10.04;100.00
29907;BME280;16776;50.958;10.994;2023-05-07T09:58:36;98979.03;;;10.10;100.00
29907;BME280;16776;50.958;10.994;2023-05-07T10:01:03;98972.31;;;10.03;100.00
29907;BME280;16776;50.958;10.994;2023-05-07T10:03:31;98965.44;;;10.03;100.00
29907;BME280;16776;50.958;10.994;2023-05-07T10:06:02;98978.31;;;10.02;100.00
29907;BME280;16776;50.958;10.994;2023-05-07T10:08:32;98968.00;;;10.03;100.00
29907;BME280;16776;50.958;10.994;2023-05-07T10:11:01;98971.47;;;10.01;100.00
29907;BME280;16776;50.958;10.994;2023-05-07T10:13:28;98973.19;;;10.02;100.00
29907;BME280;16776;50.958;10.994;2023-05-07T10:15:57;98975.72;;;10.03;100.00
29907;BME280;16776;50.958;10.994;2023-05-07T10:18:24;98973.19;;;10.02;100.00
29907;BME280;16776;50.958;10.994;2023-05-07T10:20:56;98976.50;;;10.07;100.00
29907;BME280;16776;50.958;10.994;2023-05-07T10:23:31;98967.06;;;10.07;100.00
29907;BME280;16776;50.958;10.994;2023-05-07T10:25:59;98976.47;;;10.10;100.00
29907;BME280;16776;50.958;10.994;2023-05-07T10:28:29;98966.09;;;10.13;100.00
29907;BME280;16776;50.958;10.994;2023-05-07T10:31:08;98963.34;;;10.22;100.00
29907;BME280;16776;50.958;10.994;2023-05-07T10:33:39;98960.81;;;10.19;100.00
29907;BME280;16776;50.958;10.994;2023-05-07T10:36:06;98960.78;;;10.22;100.00
29907;BME280;16776;50.958;10.994;2023-05-07T10:38:33;98952.09;;;10.26;100.00
29907;BME280;16776;50.958;10.994;2023-05-07T10:41:00;98958.88;;;10.30;100.00
29907;BME280;16776;50.958;10.994;2023-05-07T10:43:42;98960.41;;;10.40;100.00
29907;BME280;16776;50.958;10.994;2023-05-07T10:46:14;98962.16;;;10.38;100.00
29907;BME280;16776;50.958;10.994;2023-05-07T10:49:11;98966.19;;;10.50;100.00
29907;BME280;16776;50.958;10.994;2023-05-07T10:51:38;98964.69;;;10.40;100.00
29907;BME280;16776;50.958;10.994;2023-05-07T10:54:21;98955.88;;;10.50;100.00
29907;BME280;16776;50.958;10.994;2023-05-07T10:56:49;98961.16;;;10.44;100.00
29907;BME280;16776;50.958;10.994;2023-05-07T10:59:38;98962.63;;;10.57;100.00
29907;BME280;16776;50.958;10.994;2023-05-07T11:02:12;98969.59;;;10.53;100.00
29907;BME280;16776;50.958;10.994;2023-05-07T11:05:18;98967.63;;;10.64;100.00
29907;BME280;16776;50.958;10.994;2023-05-07T11:07:54;98959.91;;;10.64;100.00
29907;BME280;16776;50.958;10.994;2023-05-07T11:10:23;98959.91;;;10.64;100.00
29907;BME280;16776;50.958;10.994;2023-05-07T11:13:11;98953.91;;;10.64;100.00
29907;BME280;16776;50.958;10.994;2023-05-07T11:15:46;98957.09;;;10.75;100.00
29907;BME280;16776;50.958;10.994;2023-05-07T11:18:16;98964.78;;;10.77;100.00
29907;BME280;16776;50.958;10.994;2023-05-07T11:20:48;98961.19;;;10.84;100.00
29907;BME280;16776;50.958;10.994;2023-05-07T11:26:24;98955.03;;;10.91;100.00
29907;BME280;16776;50.958;10.994;2023-05-07T11:28:56;98952.25;;;11.00;100.00
29907;BME280;16776;50.958;10.994;2023-05-07T11:31:26;98953.88;;;11.02;100.00
29907;BME280;16776;50.958;10.994;2023-05-07T11:33:55;98951.13;;;11.10;100.00
29907;BME280;16776;50.958;10.994;2023-05-07T11:36:23;98958.78;;;11.13;100.00
29907;BME280;16776;50.958;10.994;2023-05-07T11:38:53;98965.50;;;11.20;100.00
29907;BME280;16776;50.958;10.994;2023-05-07T11:41:19;98961.13;;;11.24;100.00
29907;BME280;16776;50.958;10.994;2023-05-07T11:43:56;98965.13;;;11.35;100.00
29907;BME280;16776;50.958;10.994;2023-05-07T11:46:23;98960.03;;;11.32;100.00
29907;BME280;16776;50.958;10.994;2023-05-07T11:48:49;98966.72;;;11.39;100.00
29907;BME280;16776;50.958;10.994;2023-05-07T11:51:21;98969.16;;;11.45;100.00
29907;BME280;16776;50.958;10.994;2023-05-07T11:53:48;98974.25;;;11.49;100.00
29907;BME280;16776;50.958;10.994;2023-05-07T11:56:20;98965.44;;;11.57;100.00
29907;BME280;16776;50.958;10.994;2023-05-07T11:58:47;98964.59;;;11.57;100.00
29907;BME280;16776;50.958;10.994;2023-05-07T12:01:15;98967.97;;;11.59;100.00
29907;BME280;16776;50.958;10.994;2023-05-07T12:03:45;98966.19;;;11.64;100.00
29907;BME280;16776;50.958;10.994;2023-05-07T12:06:14;98962.66;;;11.66;100.00
29907;BME280;16776;50.958;10.994;2023-05-07T12:08:44;98968.59;;;11.70;100.00
29907;BME280;16776;50.958;10.994;2023-05-07T12:11:13;98967.66;;;11.72;100.00
29907;BME280;16776;50.958;10.994;2023-05-07T12:13:44;98968.59;;;11.70;100.00
29907;BME280;16776;50.958;10.994;2023-05-07T12:16:11;98972.03;;;11.70;100.00
29907;BME280;16776;50.958;10.994;2023-05-07T12:18:38;98966.88;;;11.70;100.00
29907;BME280;16776;50.958;10.994;2023-05-07T12:21:08;98977.94;;;11.74;100.00
29907;BME280;16776;50.958;10.994;2023-05-07T12:23:36;98977.88;;;11.77;100.00
29907;BME280;16776;50.958;10.994;2023-05-07T12:26:15;98979.31;;;11.87;100.00
29907;BME280;16776;50.958;10.994;2023-05-07T12:28:42;98976.09;;;11.79;100.00
29907;BME280;16776;50.958;10.994;2023-05-07T12:31:09;98982.97;;;11.78;100.00
29907;BME280;16776;50.958;10.994;2023-05-07T12:33:35;98978.66;;;11.79;100.00
29907;BME280;16776;50.958;10.994;2023-05-07T12:36:05;98980.28;;;11.83;100.00
29907;BME280;16776;50.958;10.994;2023-05-07T12:38:37;98974.31;;;11.81;100.00
29907;BME280;16776;50.958;10.994;2023-05-07T12:41:06;98977.63;;;11.86;100.00
29907;BME280;16776;50.958;10.994;2023-05-07T12:43:33;98978.47;;;11.87;100.00
29907;BME280;16776;50.958;10.994;2023-05-07T12:46:01;98980.06;;;11.91;100.00
29907;BME280;16776;50.958;10.994;2023-05-07T12:48:29;98976.59;;;11.92;100.00
29907;BME280;16776;50.958;10.994;2023-05-07T12:50:56;98975.66;;;11.96;100.00
29907;BME280;16776;50.958;10.994;2023-05-07T12:53:25;98968.69;;;11.98;100.00